createdAt,value
2022-11-22T00:00:31.119Z,2.21
2022-11-22T00:02:57.606Z,2.13
2022-11-22T00:05:24.375Z,2.06
2022-11-22T00:07:51.020Z,1.99
2022-11-22T00:10:17.800Z,1.90
2022-11-22T00:12:44.858Z,1.84
2022-11-22T00:15:12.229Z,1.89
2022-11-22T00:17:39.208Z,1.85
2022-11-22T00:20:08.230Z,1.84
2022-11-22T00:22:38.512Z,1.87
2022-11-22T00:25:08.789Z,1.88
2022-11-22T00:27:35.633Z,1.91
2022-11-22T00:30:02.207Z,1.91
2022-11-22T00:32:28.791Z,1.88
2022-11-22T00:34:55.301Z,1.98
2022-11-22T00:37:21.966Z,2.03
2022-11-22T00:39:48.616Z,2.16
2022-11-22T00:42:15.344Z,2.25
2022-11-22T00:44:42.011Z,2.25
2022-11-22T00:47:08.792Z,2.26
2022-11-22T00:49:35.452Z,2.32
2022-11-22T00:52:02.156Z,2.33
2022-11-22T00:54:28.744Z,2.28
2022-11-22T00:56:55.367Z,2.38
2022-11-22T00:59:22.016Z,2.41
2022-11-22T01:01:48.757Z,2.44
2022-11-22T01:04:15.508Z,2.49
2022-11-22T01:06:42.227Z,2.48
2022-11-22T01:09:09.011Z,2.43
2022-11-22T01:11:35.585Z,2.44
2022-11-22T01:14:02.430Z,2.37
2022-11-22T01:16:29.069Z,2.34
2022-11-22T01:18:55.720Z,2.26
2022-11-22T01:21:22.352Z,2.16
2022-11-22T01:23:48.937Z,2.14
2022-11-22T01:26:15.597Z,1.97
2022-11-22T01:28:42.292Z,1.87
2022-11-22T01:31:09.563Z,1.79
2022-11-22T01:33:36.251Z,1.75
2022-11-22T01:36:02.967Z,1.74
2022-11-22T01:38:29.608Z,1.83
2022-11-22T01:40:56.267Z,1.80
2022-11-22T01:43:25.546Z,1.81
2022-11-22T01:45:57.062Z,1.79
2022-11-22T01:48:41.853Z,1.86
2022-11-22T01:51:29.855Z,1.88
2022-11-22T01:54:01.209Z,1.83
2022-11-22T01:56:29.885Z,1.83
2022-11-22T01:59:00.295Z,1.81
2022-11-22T02:01:28.220Z,1.85
2022-11-22T02:03:57.830Z,1.83
2022-11-22T02:06:28.808Z,1.89
2022-11-22T02:09:01.880Z,2.07
2022-11-22T02:11:33.897Z,2.11
2022-11-22T02:14:02.530Z,2.35
2022-11-22T02:16:29.517Z,2.47
2022-11-22T02:18:56.229Z,2.48
2022-11-22T02:21:23.700Z,2.51
2022-11-22T02:23:57.128Z,2.53
2022-11-22T02:26:27.675Z,2.44
2022-11-22T02:28:57.935Z,2.42
2022-11-22T02:31:45.142Z,2.29
2022-11-22T02:34:13.350Z,2.25
2022-11-22T02:36:45.785Z,2.15
2022-11-22T02:39:16.308Z,2.16
2022-11-22T02:41:44.585Z,2.13
2022-11-22T02:44:12.418Z,2.12
2022-11-22T02:46:55.738Z,2.12
2022-11-22T02:49:24.723Z,2.08
2022-11-22T02:51:52.811Z,2.07
2022-11-22T02:54:19.878Z,2.07
2022-11-22T02:56:46.729Z,2.10
2022-11-22T02:59:13.499Z,2.22
2022-11-22T03:01:40.624Z,2.23
2022-11-22T03:04:07.515Z,2.25
2022-11-22T03:06:34.138Z,2.24
2022-11-22T03:09:00.773Z,2.25
2022-11-22T03:11:27.482Z,2.28
2022-11-22T03:13:54.222Z,2.27
2022-11-22T03:16:21.080Z,2.27
2022-11-22T03:18:47.638Z,2.33
2022-11-22T03:21:14.233Z,2.22
2022-11-22T03:23:41.027Z,2.23
2022-11-22T03:26:12.135Z,2.26
2022-11-22T03:28:38.836Z,2.13
2022-11-22T03:31:06.741Z,2.15
2022-11-22T03:33:34.501Z,2.03
2022-11-22T03:36:01.458Z,2.04
2022-11-22T03:38:28.065Z,1.98
2022-11-22T03:40:54.812Z,1.95
2022-11-22T03:43:21.844Z,1.98
2022-11-22T03:45:48.629Z,2.00
2022-11-22T03:48:15.340Z,2.04
2022-11-22T03:50:41.952Z,2.11
2022-11-22T03:53:09.027Z,2.07
2022-11-22T03:55:35.689Z,2.06
2022-11-22T03:58:02.425Z,2.34
2022-11-22T04:00:29.774Z,2.64
2022-11-22T04:02:56.502Z,3.01
2022-11-22T04:05:23.179Z,3.26
2022-11-22T04:07:50.074Z,3.42
2022-11-22T04:10:22.036Z,3.56
2022-11-22T04:12:49.088Z,3.63
2022-11-22T04:15:15.802Z,3.70
2022-11-22T04:17:45.083Z,3.69
2022-11-22T04:20:35.248Z,3.71
2022-11-22T04:23:05.019Z,3.70
2022-11-22T04:25:33.347Z,3.71
2022-11-22T04:28:00.420Z,3.69
2022-11-22T04:30:47.787Z,3.67
2022-11-22T04:33:15.746Z,3.63
2022-11-22T04:35:44.136Z,3.71
2022-11-22T04:38:12.137Z,3.73
2022-11-22T04:40:39.525Z,3.81
2022-11-22T04:43:25.996Z,3.84
2022-11-22T04:45:52.988Z,3.83
2022-11-22T04:48:19.848Z,3.81
2022-11-22T04:51:05.065Z,3.83
2022-11-22T04:53:31.788Z,3.86
2022-11-22T04:55:58.384Z,3.87
2022-11-22T04:58:25.041Z,3.90
2022-11-22T05:00:52.983Z,3.91
2022-11-22T05:03:19.983Z,3.97
2022-11-22T05:05:46.760Z,3.97
2022-11-22T05:08:13.651Z,3.97
2022-11-22T05:10:59.588Z,3.93
2022-11-22T05:13:32.420Z,3.89
2022-11-22T05:16:00.488Z,3.96
2022-11-22T05:18:28.285Z,4.10
2022-11-22T05:20:55.328Z,4.13
2022-11-22T05:23:41.734Z,4.21
2022-11-22T05:26:10.050Z,4.24
2022-11-22T05:28:38.729Z,4.23
2022-11-22T05:31:10.081Z,4.30
2022-11-22T05:33:39.219Z,4.30
2022-11-22T05:36:06.854Z,4.26
2022-11-22T05:38:35.639Z,4.27
2022-11-22T05:41:05.882Z,4.21
2022-11-22T05:43:33.205Z,4.22
2022-11-22T05:46:21.055Z,4.16
2022-11-22T05:48:50.958Z,4.13
2022-11-22T05:51:19.578Z,4.17
2022-11-22T05:53:46.338Z,4.19
2022-11-22T05:56:19.012Z,4.30
2022-11-22T05:58:46.091Z,4.28
2022-11-22T06:01:15.764Z,4.18
2022-11-22T06:03:42.878Z,4.25
2022-11-22T06:06:10.123Z,4.18
2022-11-22T06:08:39.126Z,4.15
2022-11-22T06:11:21.094Z,4.21
2022-11-22T06:13:51.796Z,4.24
2022-11-22T06:16:18.599Z,4.25
2022-11-22T06:18:45.663Z,4.26
2022-11-22T06:21:15.547Z,4.17
2022-11-22T06:23:42.323Z,4.29
2022-11-22T06:26:15.272Z,4.35
2022-11-22T06:28:42.141Z,4.21
2022-11-22T06:31:12.683Z,4.28
2022-11-22T06:33:40.405Z,4.24
2022-11-22T06:36:08.423Z,4.21
2022-11-22T06:38:35.976Z,4.30
2022-11-22T06:41:11.181Z,4.24
2022-11-22T06:43:45.128Z,4.15
2022-11-22T06:46:15.942Z,4.20
2022-11-22T06:48:43.524Z,4.16
2022-11-22T06:51:12.817Z,4.26
2022-11-22T06:53:47.244Z,4.28
2022-11-22T06:56:20.483Z,4.30
2022-11-22T06:58:49.175Z,4.28
2022-11-22T07:01:22.221Z,4.22
2022-11-22T07:03:50.039Z,4.28
2022-11-22T07:06:18.821Z,4.22
2022-11-22T07:08:46.504Z,4.28
2022-11-22T07:11:18.895Z,4.26
2022-11-22T07:13:46.394Z,4.39
2022-11-22T07:16:15.012Z,4.32
2022-11-22T07:18:42.266Z,4.35
2022-11-22T07:21:13.465Z,4.39
2022-11-22T07:23:44.640Z,4.40
2022-11-22T07:26:12.654Z,4.49
2022-11-22T07:28:39.290Z,4.46
2022-11-22T07:31:08.953Z,4.46
2022-11-22T07:33:36.285Z,4.49
2022-11-22T07:36:06.056Z,4.54
2022-11-22T07:38:33.584Z,4.51
2022-11-22T07:41:00.850Z,4.54
2022-11-22T07:43:27.844Z,4.63
2022-11-22T07:45:58.891Z,4.56
2022-11-22T07:48:25.786Z,4.60
2022-11-22T07:50:52.672Z,4.69
2022-11-22T07:53:20.232Z,4.71
2022-11-22T07:55:46.924Z,4.70
2022-11-22T07:58:13.748Z,4.77
2022-11-22T08:00:40.635Z,4.75
2022-11-22T08:03:08.935Z,4.79
2022-11-22T08:05:35.608Z,4.85
2022-11-22T08:08:02.438Z,4.87
2022-11-22T08:10:29.008Z,4.95
2022-11-22T08:12:59.897Z,4.98
2022-11-22T08:15:27.073Z,5.07
2022-11-22T08:17:53.721Z,5.12
2022-11-22T08:20:20.404Z,5.05
2022-11-22T08:22:47.075Z,5.08
2022-11-22T08:25:13.915Z,5.09
2022-11-22T08:27:42.100Z,5.13
2022-11-22T08:30:12.108Z,5.10
2022-11-22T08:32:39.006Z,5.17
2022-11-22T08:35:06.509Z,5.21
2022-11-22T08:37:33.201Z,5.18
2022-11-22T08:40:00.031Z,5.22
2022-11-22T08:42:26.703Z,5.25
2022-11-22T08:44:53.459Z,5.22
2022-11-22T08:47:20.237Z,5.23
2022-11-22T08:49:47.016Z,5.27
2022-11-22T08:52:13.759Z,5.30
2022-11-22T08:54:40.430Z,5.34
2022-11-22T08:57:06.981Z,5.44
2022-11-22T08:59:34.001Z,5.43
2022-11-22T09:02:01.131Z,5.51
2022-11-22T09:04:27.834Z,5.53
2022-11-22T09:09:41.168Z,5.54
2022-11-22T09:12:08.323Z,5.56
2022-11-22T09:14:35.205Z,5.55
2022-11-22T09:17:01.998Z,5.57
2022-11-22T09:19:28.784Z,5.62
2022-11-22T09:21:55.491Z,5.63
2022-11-22T09:24:22.245Z,5.72
2022-11-22T09:26:48.828Z,5.73
2022-11-22T09:29:16.090Z,5.74
2022-11-22T09:31:43.980Z,5.81
2022-11-22T09:34:10.866Z,5.79
2022-11-22T09:36:37.730Z,5.85
2022-11-22T09:39:04.636Z,5.85
2022-11-22T09:42:16.098Z,6.04
2022-11-22T09:45:01.312Z,6.10
2022-11-22T09:47:46.227Z,6.17
2022-11-22T09:50:28.678Z,6.26
2022-11-22T09:53:08.189Z,6.32
2022-11-22T09:55:56.644Z,6.31
2022-11-22T09:58:38.090Z,6.37
2022-11-22T10:01:19.579Z,6.46
2022-11-22T10:03:58.071Z,6.59
2022-11-22T10:06:29.212Z,6.53
2022-11-22T10:09:17.716Z,6.65
2022-11-22T10:11:58.117Z,6.71
2022-11-22T10:15:05.055Z,6.78
2022-11-22T10:17:57.117Z,6.78
2022-11-22T10:20:28.747Z,6.81
2022-11-22T10:22:56.845Z,6.80
2022-11-22T10:25:40.137Z,6.98
2022-11-22T10:28:29.932Z,7.14
2022-11-22T10:31:14.912Z,7.16
2022-11-22T10:33:57.285Z,7.24
2022-11-22T10:36:35.939Z,7.27
2022-11-22T10:39:21.549Z,7.41
2022-11-22T10:42:15.835Z,7.44
2022-11-22T10:45:07.369Z,7.59
2022-11-22T10:47:59.951Z,7.79
2022-11-22T10:50:50.254Z,7.77
2022-11-22T10:53:32.143Z,7.88
2022-11-22T10:56:04.648Z,7.82
2022-11-22T10:58:53.397Z,7.81
2022-11-22T11:01:45.151Z,7.92
2022-11-22T11:04:16.592Z,7.93
2022-11-22T11:13:01.951Z,8.09
2022-11-22T11:15:52.802Z,8.09
2022-11-22T11:18:32.067Z,8.17
2022-11-22T11:20:58.918Z,8.13
2022-11-22T11:23:25.705Z,8.14
2022-11-22T11:25:52.693Z,8.26
2022-11-22T11:28:24.930Z,8.06
2022-11-22T11:30:58.642Z,8.22
2022-11-22T11:33:25.545Z,8.01
2022-11-22T11:36:19.564Z,8.09
2022-11-22T11:38:46.064Z,7.94
2022-11-22T11:41:22.167Z,8.00
2022-11-22T11:43:49.727Z,8.07
2022-11-22T11:46:25.427Z,8.11
2022-11-22T11:49:08.463Z,8.08
2022-11-22T11:51:40.320Z,8.00
2022-11-22T11:54:14.175Z,8.12
2022-11-22T11:56:45.831Z,8.04
2022-11-22T11:59:19.817Z,8.14
2022-11-22T12:01:55.207Z,8.11
2022-11-22T12:04:25.777Z,8.19
2022-11-22T12:07:04.832Z,8.17
2022-11-22T12:09:43.613Z,8.11
2022-11-22T12:12:49.593Z,8.19
2022-11-22T12:15:45.377Z,8.30
2022-11-22T12:18:33.654Z,8.17
2022-11-22T12:21:13.808Z,7.94
2022-11-22T12:24:42.777Z,8.12
2022-11-22T12:26:59.831Z,8.01
2022-11-22T12:29:26.749Z,8.21
2022-11-22T12:32:07.623Z,8.03
2022-11-22T12:34:41.190Z,8.09
2022-11-22T12:37:15.623Z,8.17
2022-11-22T12:39:47.595Z,8.01
2022-11-22T12:42:22.988Z,7.92
2022-11-22T12:44:57.897Z,7.97
2022-11-22T12:47:33.555Z,7.78
2022-11-22T12:50:08.756Z,7.64
2022-11-22T12:52:44.010Z,7.79
2022-11-22T12:55:24.317Z,7.80
2022-11-22T12:58:03.406Z,7.86
2022-11-22T13:00:35.483Z,7.95
2022-11-22T13:03:08.745Z,7.93
2022-11-22T13:05:45.994Z,7.95
2022-11-22T13:08:48.768Z,7.83
2022-11-22T13:11:29.960Z,7.76
2022-11-22T13:14:16.426Z,7.67
2022-11-22T13:16:47.326Z,7.64
2022-11-22T13:19:17.134Z,7.63
2022-11-22T13:22:01.814Z,7.69
2022-11-22T13:24:49.255Z,7.61
2022-11-22T13:27:25.858Z,7.46
2022-11-22T13:29:56.840Z,7.37
2022-11-22T13:32:27.089Z,7.37
2022-11-22T13:35:17.674Z,7.30
2022-11-22T13:37:50.848Z,7.26
2022-11-22T13:40:31.837Z,7.30
2022-11-22T13:43:18.005Z,7.15
2022-11-22T13:45:55.800Z,7.03
2022-11-22T13:48:57.600Z,7.06
2022-11-22T13:51:51.866Z,7.01
2022-11-22T13:54:41.697Z,6.88
2022-11-22T13:57:20.595Z,6.78
2022-11-22T13:59:47.255Z,6.80
2022-11-22T14:02:31.826Z,6.83
2022-11-22T14:04:59.334Z,6.75
2022-11-22T14:07:34.325Z,6.71
2022-11-22T14:10:02.413Z,6.75
2022-11-22T14:12:45.769Z,6.77
2022-11-22T14:15:27.562Z,6.81
2022-11-22T14:18:09.319Z,6.67
2022-11-22T14:20:45.329Z,6.73
2022-11-22T14:23:30.391Z,6.63
2022-11-22T14:26:30.543Z,6.45
2022-11-22T14:29:21.760Z,6.36
2022-11-22T14:31:56.209Z,6.43
2022-11-22T14:34:28.264Z,6.45
2022-11-22T14:37:13.095Z,6.32
2022-11-22T14:39:45.597Z,6.36
2022-11-22T14:42:47.256Z,6.27
2022-11-22T14:45:31.116Z,6.24
2022-11-22T14:48:45.089Z,6.06
2022-11-22T14:51:31.924Z,5.96
2022-11-22T14:54:01.628Z,5.95
2022-11-22T14:56:38.079Z,5.82
2022-11-22T14:59:30.473Z,5.92
2022-11-22T15:02:28.412Z,5.79
2022-11-22T15:09:11.956Z,5.62
2022-11-22T15:09:20.508Z,5.73
2022-11-22T15:10:48.489Z,5.52
2022-11-22T15:13:37.189Z,5.51
2022-11-22T15:59:42.176Z,4.67
2022-11-22T16:02:20.503Z,4.65
2022-11-22T16:06:10.195Z,4.64
2022-11-22T16:07:47.235Z,4.67
2022-11-22T16:10:16.652Z,4.79
2022-11-22T16:12:43.483Z,4.90
2022-11-22T16:15:30.505Z,4.89
2022-11-22T16:18:10.357Z,4.97
2022-11-22T16:20:38.738Z,4.96
2022-11-22T16:23:12.544Z,4.93
2022-11-22T16:25:42.659Z,4.92
2022-11-22T16:28:38.084Z,4.83
2022-11-22T16:31:17.483Z,4.71
2022-11-22T16:33:44.695Z,4.64
2022-11-22T16:36:14.737Z,4.50
2022-11-22T16:38:42.545Z,4.49
2022-11-22T16:41:26.579Z,4.49
2022-11-22T16:43:59.675Z,4.56
2022-11-22T16:46:26.346Z,4.73
2022-11-22T16:48:53.386Z,4.88
2022-11-22T16:51:24.165Z,4.95
2022-11-22T16:53:53.467Z,5.02
2022-11-22T16:56:23.041Z,5.11
2022-11-22T16:58:51.223Z,5.17
2022-11-22T17:01:21.850Z,5.29
2022-11-22T17:03:52.153Z,5.46
2022-11-22T17:06:21.157Z,5.41
2022-11-22T17:08:49.938Z,5.39
2022-11-22T17:11:19.150Z,5.40
2022-11-22T17:13:46.347Z,5.47
2022-11-22T17:16:14.286Z,5.47
2022-11-22T17:18:40.870Z,5.43
2022-11-22T17:21:20.966Z,5.41
2022-11-22T17:23:48.503Z,5.57
2022-11-22T17:26:15.220Z,5.61
2022-11-22T17:28:42.023Z,5.60
2022-11-22T17:31:17.943Z,5.72
2022-11-22T17:33:44.988Z,5.72
2022-11-22T17:36:21.184Z,5.69
2022-11-22T17:38:47.917Z,5.72
2022-11-22T17:41:14.622Z,5.70
2022-11-22T17:43:41.231Z,5.68
2022-11-22T17:46:07.825Z,5.68
2022-11-22T17:48:34.543Z,5.69
2022-11-22T17:51:08.739Z,5.76
2022-11-22T17:53:35.620Z,5.75
2022-11-22T17:56:10.557Z,5.76
2022-11-22T17:58:38.717Z,5.68
2022-11-22T18:01:09.736Z,5.69
2022-11-22T18:03:36.869Z,5.66
2022-11-22T18:06:03.818Z,5.63
2022-11-22T18:08:31.004Z,5.70
2022-11-22T18:11:00.003Z,5.64
2022-11-22T18:13:31.400Z,5.58
2022-11-22T18:16:03.522Z,5.46
2022-11-22T18:18:55.747Z,5.48
2022-11-22T18:21:17.946Z,5.36
2022-11-22T18:23:45.515Z,5.37
2022-11-22T18:29:35.520Z,5.30
2022-11-22T18:31:54.295Z,5.28
2022-11-22T18:34:22.665Z,5.28
2022-11-22T18:37:01.251Z,5.22
2022-11-22T18:39:31.194Z,5.27
2022-11-22T18:41:58.241Z,5.22
2022-11-22T18:44:25.083Z,5.14
2022-11-22T18:46:51.818Z,5.15
2022-11-22T18:49:18.556Z,5.12
2022-11-22T18:51:45.302Z,5.07
2022-11-22T18:54:12.009Z,5.07
2022-11-22T18:56:40.744Z,5.01
2022-11-22T18:59:10.112Z,4.99
2022-11-22T19:01:36.822Z,4.91
2022-11-22T19:04:03.687Z,5.02
2022-11-22T19:06:30.832Z,5.04
2022-11-22T19:08:57.728Z,5.05
2022-11-22T19:11:24.436Z,5.04
2022-11-22T19:13:51.146Z,4.99
2022-11-22T19:16:21.518Z,5.06
2022-11-22T19:18:48.987Z,5.07
2022-11-22T19:21:18.804Z,5.06
2022-11-22T19:23:45.404Z,5.04
2022-11-22T19:26:17.531Z,5.12
2022-11-22T19:28:44.175Z,5.05
2022-11-22T19:31:13.831Z,5.05
2022-11-22T19:33:40.681Z,5.03
2022-11-22T19:36:11.637Z,5.03
2022-11-22T19:38:38.253Z,5.00
2022-11-22T19:41:13.019Z,5.05
2022-11-22T19:43:39.893Z,5.05
2022-11-22T19:46:06.915Z,5.07
2022-11-22T19:48:35.495Z,5.10
2022-11-22T19:51:14.052Z,5.13
2022-11-22T19:53:42.157Z,5.07
2022-11-22T19:56:19.555Z,5.09
2022-11-22T19:58:54.202Z,5.15
2022-11-22T20:01:23.112Z,5.24
2022-11-22T20:03:55.009Z,5.20
2022-11-22T20:06:22.001Z,5.23
2022-11-22T20:08:48.975Z,5.19
2022-11-22T20:11:18.948Z,5.17
2022-11-22T20:13:48.418Z,5.25
2022-11-22T20:16:17.895Z,5.17
2022-11-22T20:18:44.565Z,5.17
2022-11-22T20:21:11.705Z,5.16
2022-11-22T20:23:38.916Z,5.05
2022-11-22T20:26:11.308Z,5.03
2022-11-22T20:28:39.121Z,5.02
2022-11-22T20:31:13.792Z,5.03
2022-11-22T20:33:43.972Z,5.15
2022-11-22T20:36:13.244Z,5.21
2022-11-22T20:38:42.039Z,5.15
2022-11-22T20:41:10.816Z,5.13
2022-11-22T20:43:37.907Z,5.14
2022-11-22T20:46:07.699Z,5.11
2022-11-22T20:48:35.682Z,5.12
2022-11-22T20:51:05.477Z,5.15
2022-11-22T20:53:32.654Z,5.19
2022-11-22T20:55:59.268Z,5.07
2022-11-22T20:58:28.249Z,5.05
2022-11-22T21:00:56.360Z,5.06
2022-11-22T21:03:23.572Z,5.08
2022-11-22T21:05:52.287Z,5.06
2022-11-22T21:08:19.610Z,5.12
2022-11-22T21:10:46.241Z,5.12
2022-11-22T21:13:12.904Z,5.03
2022-11-22T21:15:39.521Z,5.01
2022-11-22T21:20:52.808Z,5.13
2022-11-22T21:23:19.430Z,5.06
2022-11-22T21:25:46.527Z,5.16
2022-11-22T21:28:13.117Z,5.26
2022-11-22T21:30:39.577Z,5.34
2022-11-22T21:33:06.055Z,5.45
2022-11-22T21:35:32.554Z,5.42
2022-11-22T21:37:59.017Z,5.51
2022-11-22T21:40:25.773Z,5.65
2022-11-22T21:42:52.341Z,5.74
2022-11-22T21:45:19.028Z,5.76
2022-11-22T21:47:48.510Z,5.78
2022-11-22T21:50:15.590Z,5.83
2022-11-22T21:52:42.766Z,5.93
2022-11-22T21:55:09.957Z,5.92
2022-11-22T21:57:36.601Z,5.90
2022-11-22T22:00:05.011Z,5.96
2022-11-22T22:02:33.041Z,6.02
2022-11-22T22:04:59.748Z,6.00
2022-11-22T22:10:14.362Z,5.96
2022-11-22T22:12:41.150Z,6.00
2022-11-22T22:15:10.838Z,5.99
2022-11-22T22:17:37.437Z,5.99
2022-11-22T22:20:04.789Z,6.04
2022-11-22T22:22:31.374Z,5.99
2022-11-22T22:24:58.144Z,5.97
2022-11-22T22:27:24.760Z,6.04
2022-11-22T22:29:51.326Z,5.98
2022-11-22T22:32:17.940Z,6.01
2022-11-22T22:34:44.496Z,5.98
2022-11-22T22:37:11.111Z,6.00
2022-11-22T22:39:37.687Z,5.98
2022-11-22T22:42:04.448Z,6.03
2022-11-22T22:44:32.791Z,6.10
2022-11-22T22:46:59.594Z,6.06
2022-11-22T22:49:26.297Z,6.08
2022-11-22T22:51:55.248Z,6.09
2022-11-22T22:54:22.516Z,6.11
2022-11-22T22:56:49.636Z,6.09
2022-11-22T22:59:16.222Z,5.86
2022-11-22T23:01:42.972Z,5.94
2022-11-22T23:04:09.951Z,5.84
2022-11-22T23:06:38.566Z,5.78
2022-11-22T23:09:08.376Z,5.71
2022-11-22T23:11:55.053Z,5.70
2022-11-22T23:14:24.075Z,5.67
2022-11-22T23:16:55.930Z,5.78
2022-11-22T23:19:24.343Z,5.80
2022-11-22T23:21:51.043Z,5.89
2022-11-22T23:24:17.858Z,5.97
2022-11-22T23:26:44.421Z,5.99
2022-11-22T23:29:11.200Z,5.98
2022-11-22T23:31:38.135Z,5.89
2022-11-22T23:34:04.921Z,5.88
2022-11-22T23:36:34.802Z,5.81
2022-11-22T23:39:04.298Z,5.68
2022-11-22T23:41:30.903Z,5.72
2022-11-22T23:43:57.556Z,5.69
2022-11-22T23:46:27.645Z,5.68
2022-11-22T23:48:59.239Z,5.57
2022-11-22T23:51:28.180Z,5.50
2022-11-22T23:53:56.307Z,5.51
2022-11-22T23:56:23.552Z,5.50
2022-11-22T23:58:51.100Z,5.39
